Time;durP1;ratioP1;P1;durP2;ratioP2;P2;SDS_P1;SDS_P2;PMS_P1;PMS_P2;Temp;Humidity;BMP_temperature;BMP_pressure;BME280_temperature;BME280_humidity;BME280_pressure;Samples;Min_cycle;Max_cycle;Signal;HPM_P1;HPM_P2
2023/06/23 00:01:09;;;;;;;14.02;9.20;;;19.20;99.90;;;;;;4976152;28;20499;-89
2023/06/23 00:03:35;;;;;;;12.35;8.98;;;18.70;99.90;;;;;;4959766;28;20045;-88
2023/06/23 00:06:09;;;;;;;11.73;6.72;;;18.80;99.90;;;;;;4961389;28;20457;-88
2023/06/23 00:08:35;;;;;;;12.63;8.45;;;18.80;99.90;;;;;;4957132;28;20093;-88
2023/06/23 00:11:01;;;;;;;12.07;8.25;;;18.80;99.90;;;;;;4983093;28;20034;-89
2023/06/23 00:13:27;;;;;;;14.00;9.52;;;18.80;99.90;;;;;;4960943;28;20085;-88
2023/06/23 00:15:57;;;;;;;13.75;9.38;;;18.80;99.90;;;;;;4948802;28;20070;-89
2023/06/23 00:18:23;;;;;;;12.85;7.88;;;18.80;99.90;;;;;;4947386;28;20130;-88
2023/06/23 00:20:48;;;;;;;13.50;8.23;;;18.70;99.90;;;;;;4981701;28;20484;-89
2023/06/23 00:23:14;;;;;;;12.23;7.53;;;18.70;99.90;;;;;;4963878;28;20046;-88
2023/06/23 00:25:40;;;;;;;9.77;6.55;;;18.70;99.90;;;;;;4963884;28;20049;-89
2023/06/23 00:28:12;;;;;;;11.20;7.35;;;18.70;99.90;;;;;;4966496;28;20446;-88
2023/06/23 00:30:40;;;;;;;17.40;11.55;;;18.70;99.90;;;;;;4984147;28;20583;-88
2023/06/23 00:33:06;;;;;;;14.02;9.30;;;18.80;99.90;;;;;;4983790;28;20076;-88
2023/06/23 00:35:32;;;;;;;11.57;8.30;;;18.70;99.90;;;;;;4979658;28;20050;-88
2023/06/23 00:38:00;;;;;;;11.90;8.52;;;18.70;99.90;;;;;;4982946;28;20126;-89
2023/06/23 00:40:26;;;;;;;11.48;7.88;;;18.70;99.90;;;;;;4973574;28;20125;-88
2023/06/23 00:42:55;;;;;;;11.15;8.10;;;18.70;99.90;;;;;;4968733;28;20038;-88
2023/06/23 00:45:24;;;;;;;13.88;9.18;;;18.70;99.90;;;;;;4985512;28;20067;-87
2023/06/23 00:47:50;;;;;;;11.60;8.30;;;18.70;99.90;;;;;;4972025;28;20055;-88
2023/06/23 00:50:21;;;;;;;11.63;7.53;;;18.60;99.90;;;;;;4962710;28;20081;-90
2023/06/23 00:52:51;;;;;;;12.95;9.77;;;18.70;99.90;;;;;;4973112;28;20484;-88
2023/06/23 00:55:27;;;;;;;12.35;8.90;;;18.60;99.90;;;;;;4985059;28;20048;-89
2023/06/23 00:58:08;;;;;;;12.55;8.35;;;18.60;99.90;;;;;;5001409;28;20038;-89
2023/06/23 01:00:34;;;;;;;14.77;7.78;;;18.60;99.90;;;;;;4969351;28;20034;-88
2023/06/23 01:03:00;;;;;;;12.75;8.80;;;18.60;99.90;;;;;;4999688;28;20066;-88
2023/06/23 01:05:36;;;;;;;14.82;8.23;;;18.60;99.90;;;;;;4975168;28;20057;-87
2023/06/23 01:08:15;;;;;;;13.48;8.30;;;18.60;99.90;;;;;;4978435;28;20042;-88
2023/06/23 01:10:52;;;;;;;12.80;8.43;;;18.60;99.90;;;;;;4993896;28;20405;-88
2023/06/23 01:13:37;;;;;;;14.75;8.25;;;18.60;99.90;;;;;;4987554;28;20117;-89
2023/06/23 01:16:28;;;;;;;12.63;9.05;;;18.50;99.90;;;;;;5004304;28;20108;-88
2023/06/23 01:19:03;;;;;;;11.63;7.80;;;18.50;99.90;;;;;;4982811;28;20046;-89
2023/06/23 01:21:59;;;;;;;12.65;8.18;;;18.40;99.90;;;;;;4960373;28;20064;-88
2023/06/23 01:24:50;;;;;;;12.50;8.73;;;18.40;99.90;;;;;;4978591;28;20050;-88
2023/06/23 01:27:50;;;;;;;13.85;8.38;;;18.40;99.90;;;;;;4988646;28;20046;-88
2023/06/23 01:30:19;;;;;;;13.65;8.80;;;18.40;99.90;;;;;;4975687;28;20088;-89
2023/06/23 01:32:52;;;;;;;11.48;7.43;;;18.40;99.90;;;;;;4976663;28;20409;-89
2023/06/23 01:35:43;;;;;;;15.32;7.43;;;18.30;99.90;;;;;;4966667;28;20046;-88
2023/06/23 01:38:20;;;;;;;11.90;6.93;;;18.40;99.90;;;;;;4984440;28;20118;-89
2023/06/23 01:40:52;;;;;;;13.05;7.32;;;18.30;99.90;;;;;;4986473;28;20039;-88
2023/06/23 01:43:29;;;;;;;9.82;5.93;;;18.30;99.90;;;;;;4984307;28;20035;-88
2023/06/23 01:46:18;;;;;;;10.95;6.90;;;18.30;99.90;;;;;;4992963;28;20078;-88
2023/06/23 01:48:48;;;;;;;10.75;5.82;;;18.30;99.90;;;;;;4986400;28;20039;-89
2023/06/23 01:51:17;;;;;;;11.43;6.28;;;18.30;99.90;;;;;;4966033;28;20044;-89
2023/06/23 01:53:46;;;;;;;8.93;5.20;;;18.30;99.90;;;;;;4986933;28;20038;-89
2023/06/23 01:56:17;;;;;;;7.93;5.45;;;18.30;99.90;;;;;;4955769;28;20117;-89
2023/06/23 01:58:43;;;;;;;8.60;5.65;;;18.20;99.90;;;;;;4952308;28;20047;-89
2023/06/23 02:01:11;;;;;;;10.23;5.45;;;18.20;99.90;;;;;;4987459;28;20093;-89
2023/06/23 02:03:58;;;;;;;9.13;5.38;;;18.20;99.90;;;;;;4988258;28;20079;-89
2023/06/23 02:06:25;;;;;;;9.23;5.20;;;18.10;99.90;;;;;;4982042;28;20057;-89
2023/06/23 02:08:51;;;;;;;10.40;5.07;;;18.20;99.90;;;;;;4981579;28;20047;-88
2023/06/23 02:11:18;;;;;;;10.05;4.78;;;18.20;99.90;;;;;;4981045;28;20052;-89
2023/06/23 02:13:45;;;;;;;12.30;5.50;;;18.10;99.90;;;;;;4983458;28;20038;-88
2023/06/23 02:16:12;;;;;;;7.57;4.68;;;18.10;99.90;;;;;;4964817;28;20549;-89
2023/06/23 02:18:40;;;;;;;10.13;5.65;;;18.10;99.90;;;;;;4982180;28;20071;-87
2023/06/23 02:21:07;;;;;;;8.52;5.32;;;18.10;99.90;;;;;;4981715;28;20081;-88
2023/06/23 02:23:38;;;;;;;7.65;4.55;;;18.10;99.90;;;;;;4951626;28;20047;-89
2023/06/23 02:26:06;;;;;;;10.48;5.40;;;18.00;99.90;;;;;;4946826;28;20053;-87
2023/06/23 02:28:32;;;;;;;8.88;5.32;;;18.10;99.90;;;;;;4977567;28;20081;-89
2023/06/23 02:30:59;;;;;;;9.93;4.85;;;18.10;99.90;;;;;;4970416;28;20030;-89
2023/06/23 02:33:25;;;;;;;11.85;5.63;;;18.10;99.90;;;;;;4950922;28;20077;-89
2023/06/23 02:36:00;;;;;;;12.13;5.55;;;18.10;99.90;;;;;;4977919;28;20046;-89
2023/06/23 02:38:27;;;;;;;11.68;5.28;;;18.10;99.90;;;;;;4949821;28;20046;-88
2023/06/23 02:40:55;;;;;;;8.90;6.05;;;18.10;99.90;;;;;;4978884;28;20234;-90
2023/06/23 02:43:28;;;;;;;8.38;4.60;;;18.10;99.90;;;;;;4989829;28;20053;-89
2023/06/23 02:45:59;;;;;;;10.38;5.85;;;17.90;99.90;;;;;;4971928;28;20038;-89
2023/06/23 02:48:35;;;;;;;9.32;5.22;;;18.10;99.90;;;;;;4958277;28;20043;-89
2023/06/23 02:51:03;;;;;;;8.27;5.22;;;17.70;99.90;;;;;;4956787;28;20037;-89
2023/06/23 02:53:35;;;;;;;10.30;5.30;;;18.00;99.90;;;;;;4971711;28;20050;-88
2023/06/23 02:56:11;;;;;;;7.63;4.38;;;18.00;99.90;;;;;;4971223;28;20035;-89
2023/06/23 02:58:38;;;;;;;7.30;4.50;;;18.00;99.90;;;;;;4982270;28;20058;-89
2023/06/23 03:01:06;;;;;;;8.20;4.88;;;18.00;99.90;;;;;;4975099;28;20157;-89
2023/06/23 03:03:34;;;;;;;9.27;4.68;;;18.00;99.90;;;;;;4971175;28;20630;-88
2023/06/23 03:06:00;;;;;;;10.60;5.07;;;18.00;99.90;;;;;;4994157;28;20485;-87
2023/06/23 03:08:28;;;;;;;9.30;5.57;;;18.00;99.90;;;;;;4975954;28;20062;-89
2023/06/23 03:10:56;;;;;;;10.13;4.97;;;18.00;99.90;;;;;;4995015;28;20508;-89
2023/06/23 03:13:22;;;;;;;10.65;5.25;;;18.00;99.90;;;;;;4972942;28;20057;-88
2023/06/23 03:15:51;;;;;;;10.00;5.15;;;17.90;99.90;;;;;;4973209;28;20042;-89
2023/06/23 03:18:20;;;;;;;7.97;4.97;;;17.90;99.90;;;;;;4976296;28;20503;-89
2023/06/23 03:20:52;;;;;;;10.73;5.55;;;17.90;99.90;;;;;;4953108;28;20101;-88
2023/06/23 03:23:20;;;;;;;11.80;6.10;;;17.90;99.90;;;;;;4976067;28;20058;-88
2023/06/23 03:25:54;;;;;;;11.75;6.03;;;17.70;99.90;;;;;;4965505;28;20042;-88
2023/06/23 03:28:30;;;;;;;9.07;4.40;;;17.90;99.90;;;;;;4991755;28;20105;-88
2023/06/23 03:31:02;;;;;;;8.82;5.15;;;17.80;99.90;;;;;;4982663;28;20053;-89
2023/06/23 03:33:32;;;;;;;9.82;6.13;;;17.90;99.90;;;;;;4956995;28;20125;-89
2023/06/23 03:36:04;;;;;;;10.30;5.13;;;17.90;99.90;;;;;;4956412;28;20042;-89
2023/06/23 03:38:35;;;;;;;9.98;5.60;;;17.90;99.90;;;;;;4961349;28;20039;-88
2023/06/23 03:41:07;;;;;;;8.85;4.90;;;17.80;99.90;;;;;;4984882;28;20050;-88
2023/06/23 03:43:49;;;;;;;10.55;6.28;;;17.80;99.90;;;;;;4968096;28;20077;-89
2023/06/23 03:46:42;;;;;;;8.52;5.70;;;17.80;99.90;;;;;;4983879;28;20042;-89
2023/06/23 03:49:09;;;;;;;10.60;5.80;;;17.80;99.90;;;;;;4970452;28;20088;-89
2023/06/23 03:51:38;;;;;;;8.85;4.28;;;17.80;99.90;;;;;;4987886;28;20042;-89
2023/06/23 03:54:07;;;;;;;10.93;5.80;;;17.80;99.90;;;;;;4973276;28;20037;-89
2023/06/23 03:56:34;;;;;;;9.63;5.65;;;17.70;99.90;;;;;;4989603;28;20143;-89
2023/06/23 03:59:04;;;;;;;8.00;5.40;;;17.70;99.90;;;;;;4963315;28;20096;-88
2023/06/23 04:01:32;;;;;;;8.40;5.97;;;17.70;99.90;;;;;;4957596;28;20078;-89
2023/06/23 04:03:58;;;;;;;8.93;5.80;;;17.70;99.90;;;;;;4969022;28;20038;-89
2023/06/23 04:06:26;;;;;;;8.30;4.88;;;17.70;99.90;;;;;;4988813;28;20046;-87
2023/06/23 04:09:14;;;;;;;9.48;5.00;;;17.70;99.90;;;;;;4954516;28;20046;-88
2023/06/23 04:11:49;;;;;;;10.27;6.20;;;17.70;99.90;;;;;;4951946;28;20058;-89
2023/06/23 04:14:17;;;;;;;12.27;6.70;;;18.00;99.90;;;;;;4976067;28;20046;-89
2023/06/23 04:16:47;;;;;;;11.32;7.10;;;17.70;99.90;;;;;;4983402;28;20049;-89
2023/06/23 04:19:17;;;;;;;14.50;6.45;;;17.70;99.90;;;;;;4972743;28;20446;-89
2023/06/23 04:21:44;;;;;;;10.23;6.10;;;17.70;99.90;;;;;;4990534;28;20046;-89
2023/06/23 04:24:17;;;;;;;9.85;5.68;;;17.60;99.90;;;;;;4964833;28;20034;-89
2023/06/23 04:26:47;;;;;;;9.65;6.38;;;17.60;99.90;;;;;;4984593;28;20038;-89
2023/06/23 04:29:15;;;;;;;14.07;7.97;;;17.60;99.90;;;;;;4966109;28;20405;-89
2023/06/23 04:31:43;;;;;;;11.40;6.50;;;17.60;99.90;;;;;;4987509;28;20038;-89
2023/06/23 04:34:09;;;;;;;8.48;5.07;;;17.60;99.90;;;;;;4955926;28;20505;-89
2023/06/23 04:36:43;;;;;;;9.70;5.68;;;17.60;99.90;;;;;;4982367;28;20046;-89
2023/06/23 04:39:19;;;;;;;12.38;7.43;;;17.60;99.90;;;;;;4972382;28;20078;-89
2023/06/23 04:41:51;;;;;;;13.05;7.97;;;17.60;99.90;;;;;;4972343;28;20109;-88
2023/06/23 04:44:19;;;;;;;17.80;7.40;;;17.60;99.90;;;;;;4968226;28;20074;-87
2023/06/23 04:46:48;;;;;;;7.88;5.55;;;17.60;99.90;;;;;;4982011;28;20034;-88
2023/06/23 04:49:19;;;;;;;10.60;7.78;;;17.60;99.90;;;;;;4964928;28;20065;-88
2023/06/23 04:51:49;;;;;;;13.45;7.07;;;17.60;99.90;;;;;;4977243;28;20054;-89
2023/06/23 04:54:20;;;;;;;8.55;5.65;;;17.70;99.90;;;;;;4969788;28;20076;-89
2023/06/23 04:56:50;;;;;;;12.00;7.55;;;17.70;99.90;;;;;;4990703;28;20057;-90
2023/06/23 04:59:20;;;;;;;12.10;6.63;;;17.70;99.90;;;;;;4961746;28;20216;-89
2023/06/23 05:01:47;;;;;;;10.25;6.47;;;17.70;99.90;;;;;;4991616;28;20039;-89
2023/06/23 05:04:14;;;;;;;10.40;6.93;;;17.70;99.90;;;;;;4973903;28;20160;-90
2023/06/23 05:06:42;;;;;;;11.00;6.82;;;17.70;99.90;;;;;;4993062;28;20051;-90
2023/06/23 05:09:10;;;;;;;9.75;6.65;;;17.70;99.90;;;;;;4971669;28;20049;-89
2023/06/23 05:11:38;;;;;;;10.48;7.60;;;17.70;99.90;;;;;;4958383;28;20081;-92
2023/06/23 05:14:06;;;;;;;14.55;7.25;;;17.70;99.90;;;;;;4980320;28;20055;-91
2023/06/23 05:16:33;;;;;;;11.80;7.35;;;17.70;99.90;;;;;;4995158;28;20070;-90
2023/06/23 05:19:00;;;;;;;11.23;6.25;;;17.70;99.90;;;;;;4992393;28;20046;-92
2023/06/23 05:21:29;;;;;;;11.48;7.10;;;17.80;99.90;;;;;;4977226;28;20482;-92
2023/06/23 05:23:56;;;;;;;13.55;7.10;;;17.80;99.90;;;;;;4975203;28;20043;-91
2023/06/23 05:26:24;;;;;;;13.13;6.53;;;17.80;99.90;;;;;;4961520;28;20501;-92
2023/06/23 05:28:53;;;;;;;11.30;6.90;;;17.80;99.90;;;;;;4964609;28;20484;-91
2023/06/23 05:31:22;;;;;;;11.05;6.68;;;17.90;99.90;;;;;;4994616;28;20058;-92
2023/06/23 05:33:48;;;;;;;9.18;5.57;;;17.90;99.90;;;;;;4993499;28;20073;-92
2023/06/23 05:36:16;;;;;;;14.10;7.35;;;17.90;99.90;;;;;;4980143;28;20320;-92
2023/06/23 05:38:45;;;;;;;12.23;7.47;;;17.90;99.90;;;;;;4969559;28;20392;-91
2023/06/23 05:41:11;;;;;;;12.43;6.38;;;17.90;99.90;;;;;;4966746;28;20115;-91
2023/06/23 05:43:37;;;;;;;10.27;7.55;;;17.90;99.90;;;;;;4961019;28;20491;-94
2023/06/23 05:46:07;;;;;;;14.57;7.43;;;17.90;99.90;;;;;;4987170;28;20077;-96
2023/06/23 05:48:51;;;;;;;12.55;7.30;;;17.90;99.90;;;;;;4970645;28;20113;-92
2023/06/23 05:51:22;;;;;;;13.93;7.10;;;17.90;99.90;;;;;;4987783;28;20046;-88
2023/06/23 05:53:54;;;;;;;14.02;6.55;;;17.80;99.90;;;;;;4964315;28;20450;-91
2023/06/23 05:56:29;;;;;;;12.35;7.80;;;17.90;99.90;;;;;;4971981;28;20042;-91
2023/06/23 05:58:58;;;;;;;13.90;6.60;;;17.90;99.90;;;;;;4968119;28;20039;-90
2023/06/23 06:01:30;;;;;;;11.60;7.32;;;17.90;99.90;;;;;;4964622;28;20047;-91
2023/06/23 06:04:16;;;;;;;12.20;7.57;;;17.80;99.90;;;;;;4963864;28;20042;-93
2023/06/23 06:06:44;;;;;;;13.00;6.93;;;17.80;99.90;;;;;;4964574;28;20046;-93
2023/06/23 06:09:12;;;;;;;11.77;7.50;;;17.80;99.90;;;;;;4987867;28;20034;-95
2023/06/23 06:11:40;;;;;;;12.45;7.60;;;17.70;99.90;;;;;;4973801;28;20073;-96
2023/06/23 06:14:08;;;;;;;17.90;7.43;;;17.70;99.90;;;;;;4968346;28;20054;-96
2023/06/23 06:16:36;;;;;;;11.57;7.75;;;17.70;99.90;;;;;;4992099;28;20752;-96
2023/06/23 06:19:03;;;;;;;13.35;8.85;;;17.70;99.90;;;;;;4972353;28;20050;-93
2023/06/23 06:21:32;;;;;;;12.35;8.10;;;17.70;99.90;;;;;;4980628;28;20049;-90
2023/06/23 06:23:59;;;;;;;11.10;7.03;;;17.70;99.90;;;;;;4979632;28;20716;-90
2023/06/23 06:26:25;;;;;;;13.32;7.88;;;17.70;99.90;;;;;;4980779;28;20053;-91
2023/06/23 06:28:54;;;;;;;13.27;9.13;;;17.70;99.90;;;;;;4948018;28;20039;-91
2023/06/23 06:31:21;;;;;;;18.02;9.93;;;17.70;99.90;;;;;;4967812;28;20490;-88
2023/06/23 06:33:49;;;;;;;11.05;8.63;;;17.70;99.90;;;;;;4987546;28;20038;-89
2023/06/23 06:36:18;;;;;;;13.70;8.63;;;17.70;99.90;;;;;;4977382;28;20046;-88
2023/06/23 06:38:47;;;;;;;12.82;7.03;;;17.80;99.90;;;;;;4987353;28;20038;-94
2023/06/23 06:41:13;;;;;;;13.30;8.68;;;17.90;99.90;;;;;;4964761;28;20046;-95
2023/06/23 06:43:39;;;;;;;13.05;7.57;;;17.90;99.90;;;;;;4946789;28;20039;-89
2023/06/23 06:46:06;;;;;;;16.55;9.30;;;17.90;99.90;;;;;;4966364;28;20498;-90
2023/06/23 06:48:33;;;;;;;11.90;8.00;;;18.00;99.90;;;;;;4959914;28;20180;-90
2023/06/23 06:50:59;;;;;;;17.08;8.48;;;18.00;99.90;;;;;;4954035;28;20084;-90
2023/06/23 06:53:26;;;;;;;11.05;8.00;;;18.00;99.90;;;;;;4973545;28;20518;-90
2023/06/23 06:55:52;;;;;;;15.48;8.57;;;18.00;99.90;;;;;;4979519;28;20049;-90
2023/06/23 06:58:18;;;;;;;13.35;7.97;;;18.10;99.90;;;;;;4987059;28;20046;-90
2023/06/23 07:00:45;;;;;;;11.57;7.28;;;18.10;99.90;;;;;;4960122;28;20070;-91
2023/06/23 07:03:13;;;;;;;12.13;8.23;;;18.20;99.90;;;;;;4969163;28;20490;-91
2023/06/23 07:05:39;;;;;;;13.35;8.23;;;18.30;99.90;;;;;;4959094;28;20049;-88
2023/06/23 07:08:05;;;;;;;12.32;7.75;;;18.30;99.90;;;;;;4978082;28;20054;-87
2023/06/23 07:10:33;;;;;;;11.55;7.13;;;18.40;99.90;;;;;;4985003;28;20043;-89
2023/06/23 07:12:58;;;;;;;10.55;6.35;;;18.50;99.90;;;;;;4980837;28;20042;-86
2023/06/23 07:15:27;;;;;;;12.05;6.88;;;18.70;99.90;;;;;;4974415;28;20363;-86
2023/06/23 07:17:53;;;;;;;11.00;7.18;;;18.80;99.90;;;;;;4962703;28;20592;-87
2023/06/23 07:20:19;;;;;;;10.35;6.63;;;18.90;99.90;;;;;;4961582;28;20042;-86
2023/06/23 07:22:45;;;;;;;11.68;6.55;;;19.10;99.90;;;;;;4963731;28;20471;-87
2023/06/23 07:25:11;;;;;;;10.43;5.90;;;19.20;99.90;;;;;;4969625;28;20133;-86
2023/06/23 07:27:37;;;;;;;8.85;5.72;;;19.30;99.90;;;;;;4949682;28;20124;-87
2023/06/23 07:30:04;;;;;;;11.57;5.57;;;19.40;99.90;;;;;;4958235;28;20038;-87
2023/06/23 07:32:29;;;;;;;9.85;5.72;;;19.50;99.90;;;;;;4980779;28;20567;-87
2023/06/23 07:34:55;;;;;;;9.25;6.32;;;19.60;99.90;;;;;;4944443;28;20074;-88
2023/06/23 07:37:21;;;;;;;9.75;5.60;;;19.70;99.90;;;;;;4963831;28;20121;-88
2023/06/23 07:39:46;;;;;;;7.32;5.50;;;19.80;99.90;;;;;;4982529;28;20113;-88
2023/06/23 07:42:12;;;;;;;8.55;5.20;;;19.90;99.90;;;;;;4957384;28;20046;-88
2023/06/23 07:44:38;;;;;;;11.10;5.38;;;20.00;99.90;;;;;;4961372;28;20450;-88
2023/06/23 07:47:04;;;;;;;9.02;5.70;;;20.10;99.90;;;;;;4956190;28;20482;-88
2023/06/23 07:49:30;;;;;;;7.53;5.68;;;20.20;99.90;;;;;;4959026;28;20129;-88
2023/06/23 07:52:00;;;;;;;8.52;6.22;;;20.20;99.90;;;;;;4959983;28;20125;-88
2023/06/23 07:54:29;;;;;;;10.30;5.47;;;20.40;99.90;;;;;;4963678;28;20077;-88
2023/06/23 07:56:58;;;;;;;7.65;5.18;;;20.40;99.90;;;;;;4980428;28;20109;-88
2023/06/23 07:59:27;;;;;;;8.18;5.10;;;20.50;99.90;;;;;;4981742;28;20042;-88
2023/06/23 08:01:56;;;;;;;9.23;4.63;;;20.60;99.90;;;;;;4979945;28;20051;-88
2023/06/23 08:04:22;;;;;;;8.50;4.45;;;20.60;99.90;;;;;;4947180;28;20046;-88
2023/06/23 08:06:48;;;;;;;6.82;4.45;;;20.80;99.90;;;;;;4961475;28;20070;-89
2023/06/23 08:09:15;;;;;;;11.80;4.55;;;20.80;99.90;;;;;;4973607;28;20113;-89
2023/06/23 08:11:41;;;;;;;7.35;4.75;;;20.90;99.90;;;;;;4955890;28;20045;-89
2023/06/23 08:14:07;;;;;;;7.15;4.05;;;21.00;99.90;;;;;;4959555;28;20035;-89
2023/06/23 08:16:32;;;;;;;9.63;3.97;;;21.00;99.90;;;;;;4976377;28;20476;-88
2023/06/23 08:18:58;;;;;;;6.25;4.18;;;21.10;99.90;;;;;;4980213;28;20038;-88
2023/06/23 08:21:24;;;;;;;5.50;3.70;;;21.10;99.90;;;;;;4949061;28;20477;-89
2023/06/23 08:23:49;;;;;;;7.90;4.72;;;21.10;99.90;;;;;;4954886;28;20437;-89
2023/06/23 08:26:15;;;;;;;6.15;4.07;;;21.20;99.90;;;;;;4976905;28;20133;-89
2023/06/23 08:28:41;;;;;;;5.88;3.45;;;21.20;99.90;;;;;;4959513;28;20470;-89
2023/06/23 08:31:07;;;;;;;5.90;3.35;;;21.20;99.90;;;;;;4956095;28;20035;-89
2023/06/23 08:33:33;;;;;;;7.53;4.38;;;21.40;99.90;;;;;;4979544;28;20114;-89
2023/06/23 08:36:00;;;;;;;5.13;3.42;;;21.50;99.90;;;;;;4954878;28;20035;-89
2023/06/23 08:38:26;;;;;;;6.65;3.40;;;21.50;99.90;;;;;;4962091;28;20053;-88
2023/06/23 08:40:55;;;;;;;5.30;3.28;;;21.60;99.90;;;;;;4958112;28;20501;-89
2023/06/23 08:43:25;;;;;;;5.63;3.25;;;21.70;99.90;;;;;;4962347;28;20129;-89
2023/06/23 08:46:13;;;;;;;7.15;3.55;;;21.70;99.90;;;;;;4958048;28;20089;-89
2023/06/23 08:48:42;;;;;;;5.50;3.28;;;21.80;99.90;;;;;;4961379;28;20034;-89
2023/06/23 08:51:08;;;;;;;6.53;3.53;;;21.90;99.90;;;;;;4980003;28;20045;-89
2023/06/23 08:53:34;;;;;;;5.28;3.33;;;21.90;99.90;;;;;;4959030;28;20054;-89
2023/06/23 08:56:00;;;;;;;6.78;3.45;;;22.00;99.90;;;;;;4975040;28;20045;-89
2023/06/23 08:58:26;;;;;;;6.75;3.55;;;22.10;99.90;;;;;;4974156;28;20189;-87
2023/06/23 09:00:53;;;;;;;5.70;4.03;;;22.10;99.90;;;;;;4963656;28;20541;-87
2023/06/23 09:03:23;;;;;;;6.28;3.63;;;22.20;99.90;;;;;;4949740;28;20038;-86
2023/06/23 09:05:49;;;;;;;9.68;3.42;;;22.20;99.90;;;;;;4958864;28;20050;-86
2023/06/23 09:08:15;;;;;;;6.47;3.55;;;22.30;99.90;;;;;;4981513;28;20050;-86
2023/06/23 09:10:41;;;;;;;5.45;3.22;;;22.40;99.90;;;;;;4961733;28;20466;-86
2023/06/23 09:13:27;;;;;;;7.32;3.45;;;22.40;99.90;;;;;;4965607;28;20049;-86
2023/06/23 09:15:54;;;;;;;5.75;2.90;;;22.50;99.90;;;;;;4983335;28;20030;-87
2023/06/23 09:18:20;;;;;;;5.38;3.10;;;22.60;99.90;;;;;;4949253;28;20137;-86
2023/06/23 09:20:50;;;;;;;7.00;3.40;;;22.70;99.90;;;;;;4964103;28;20050;-87
2023/06/23 09:23:18;;;;;;;7.75;3.67;;;22.80;99.90;;;;;;4968305;28;20038;-86
2023/06/23 09:25:48;;;;;;;7.72;4.07;;;22.80;99.90;;;;;;4980667;28;20042;-86
2023/06/23 09:28:27;;;;;;;8.45;3.80;;;22.90;99.90;;;;;;4967472;28;20038;-87
2023/06/23 09:30:54;;;;;;;6.53;4.55;;;23.00;99.90;;;;;;4981163;28;20042;-87
2023/06/23 09:33:21;;;;;;;6.95;4.13;;;23.00;99.90;;;;;;4961876;28;20042;-87
2023/06/23 09:35:51;;;;;;;7.22;4.00;;;23.10;99.90;;;;;;4945181;28;20042;-86
2023/06/23 09:38:22;;;;;;;6.97;4.15;;;23.20;99.90;;;;;;4961927;28;20050;-86
2023/06/23 09:40:48;;;;;;;6.20;3.67;;;23.10;99.90;;;;;;4964086;28;20054;-86
2023/06/23 09:43:15;;;;;;;6.55;4.30;;;23.20;99.90;;;;;;4965793;28;20359;-86
2023/06/23 09:45:41;;;;;;;7.55;3.42;;;23.20;99.90;;;;;;4961893;28;20058;-86
2023/06/23 09:48:28;;;;;;;6.90;3.55;;;23.30;99.90;;;;;;4959408;28;20046;-86
2023/06/23 09:51:00;;;;;;;6.68;3.60;;;23.30;99.90;;;;;;4983697;28;20035;-86
2023/06/23 09:53:29;;;;;;;6.00;3.45;;;23.30;99.90;;;;;;4977534;28;20393;-86
2023/06/23 09:55:55;;;;;;;6.57;3.65;;;23.40;99.90;;;;;;4957389;28;20412;-86
2023/06/23 09:58:21;;;;;;;7.15;3.67;;;23.50;99.90;;;;;;4969368;28;20137;-86
2023/06/23 10:00:47;;;;;;;5.40;3.42;;;23.60;99.90;;;;;;4943626;28;20070;-85
2023/06/23 10:03:12;;;;;;;6.72;3.88;;;23.70;99.90;;;;;;4960321;28;20133;-86
2023/06/23 10:05:38;;;;;;;6.88;3.38;;;23.80;99.90;;;;;;4961087;28;20043;-86
2023/06/23 10:08:22;;;;;;;7.15;4.50;;;23.80;99.90;;;;;;4964426;28;20082;-85
2023/06/23 10:10:48;;;;;;;7.00;4.33;;;23.90;99.90;;;;;;4980669;28;20054;-86
2023/06/23 10:13:14;;;;;;;6.93;3.67;;;23.90;99.90;;;;;;4984046;28;20051;-86
2023/06/23 10:15:41;;;;;;;7.10;4.30;;;24.00;99.90;;;;;;4981330;28;20038;-86
2023/06/23 10:18:10;;;;;;;5.93;4.00;;;24.10;99.90;;;;;;4963937;28;20046;-86
2023/06/23 10:20:36;;;;;;;7.97;4.53;;;24.20;99.90;;;;;;4946243;28;20043;-87
2023/06/23 10:23:02;;;;;;;6.70;3.97;;;24.30;99.90;;;;;;4962695;28;20077;-87
2023/06/23 10:25:28;;;;;;;5.55;3.10;;;24.30;99.90;;;;;;4961735;28;20406;-87
2023/06/23 10:27:57;;;;;;;5.75;3.35;;;24.30;99.90;;;;;;4962367;28;20081;-87
2023/06/23 10:30:24;;;;;;;7.53;4.15;;;24.40;99.90;;;;;;4977419;28;20058;-87
2023/06/23 10:32:54;;;;;;;5.70;4.15;;;24.40;99.90;;;;;;4963362;28;20038;-87
2023/06/23 10:35:22;;;;;;;6.72;3.47;;;24.40;99.90;;;;;;4962147;28;20082;-87
2023/06/23 10:37:49;;;;;;;5.97;3.60;;;24.40;99.90;;;;;;4964692;28;20125;-87
2023/06/23 10:40:18;;;;;;;5.43;3.35;;;24.50;99.90;;;;;;4967004;28;20052;-88
2023/06/23 10:42:47;;;;;;;7.38;3.90;;;24.60;99.90;;;;;;4969481;28;20042;-86
2023/06/23 10:45:13;;;;;;;7.20;3.70;;;24.60;99.30;;;;;;4967693;28;20126;-88
2023/06/23 10:47:39;;;;;;;8.70;3.70;;;24.70;99.90;;;;;;4964013;28;20122;-88
2023/06/23 10:50:09;;;;;;;7.25;3.33;;;24.80;99.90;;;;;;4990392;28;20572;-89
2023/06/23 10:52:35;;;;;;;6.60;3.80;;;24.80;99.90;;;;;;4966146;28;20401;-86
2023/06/23 10:55:01;;;;;;;5.97;3.50;;;24.80;99.90;;;;;;4985041;28;20034;-87
2023/06/23 10:57:27;;;;;;;6.43;3.70;;;24.80;99.90;;;;;;4948570;28;20051;-87
2023/06/23 11:00:00;;;;;;;6.88;3.30;;;24.90;99.90;;;;;;4984209;28;20034;-87
2023/06/23 11:02:27;;;;;;;6.57;3.55;;;25.10;99.90;;;;;;4969979;28;20042;-88
2023/06/23 11:05:01;;;;;;;7.90;3.90;;;25.10;99.90;;;;;;4982044;28;20128;-87
2023/06/23 11:07:27;;;;;;;5.72;3.50;;;25.30;99.90;;;;;;4979220;28;20082;-89
2023/06/23 11:09:58;;;;;;;7.05;3.92;;;25.20;99.90;;;;;;4981497;28;20046;-87
2023/06/23 11:12:43;;;;;;;8.25;4.20;;;25.20;99.90;;;;;;4981652;28;20053;-87
2023/06/23 11:15:19;;;;;;;6.95;3.30;;;25.30;99.90;;;;;;4964764;28;20398;-87
2023/06/23 11:17:50;;;;;;;5.90;3.45;;;25.20;99.90;;;;;;4959599;28;20441;-86
2023/06/23 11:20:25;;;;;;;6.80;3.85;;;25.10;99.90;;;;;;4962798;28;20041;-88
2023/06/23 11:23:15;;;;;;;5.97;3.50;;;25.10;99.90;;;;;;4962315;28;20042;-82
2023/06/23 11:25:42;;;;;;;8.23;3.50;;;25.20;99.90;;;;;;4969876;28;20053;-82
2023/06/23 11:28:33;;;;;;;5.82;3.00;;;25.30;99.90;;;;;;4968796;28;20425;-86
2023/06/23 11:31:13;;;;;;;9.05;2.85;;;25.50;99.50;;;;;;4983116;28;20046;-83
2023/06/23 11:33:41;;;;;;;7.28;2.85;;;25.70;98.60;;;;;;4964904;28;20136;-83
2023/06/23 11:36:12;;;;;;;5.07;2.97;;;25.50;98.60;;;;;;4964084;28;20046;-83
2023/06/23 11:38:40;;;;;;;5.70;2.53;;;25.50;97.90;;;;;;4977382;28;20540;-83
2023/06/23 11:41:06;;;;;;;6.97;3.03;;;25.60;98.20;;;;;;4963087;28;20125;-83
2023/06/23 11:43:45;;;;;;;5.05;3.05;;;25.60;99.10;;;;;;4972700;28;20517;-83
2023/06/23 11:46:13;;;;;;;6.85;4.60;;;25.70;99.30;;;;;;4984605;28;20050;-83
2023/06/23 11:48:40;;;;;;;7.90;3.47;;;25.70;98.40;;;;;;4944102;28;20105;-84
2023/06/23 11:51:08;;;;;;;6.97;3.42;;;25.70;99.20;;;;;;4979042;28;20057;-83
2023/06/23 11:53:35;;;;;;;6.88;3.10;;;25.70;98.70;;;;;;4965119;28;20062;-84
2023/06/23 11:56:02;;;;;;;4.50;3.38;;;25.70;97.60;;;;;;4954054;28;20046;-84
2023/06/23 11:58:30;;;;;;;7.07;3.75;;;25.70;97.80;;;;;;4967298;28;20046;-85
2023/06/23 12:00:55;;;;;;;7.85;4.10;;;25.80;98.40;;;;;;4964528;28;20136;-86
2023/06/23 12:03:21;;;;;;;6.38;3.70;;;25.90;98.30;;;;;;4971425;28;20043;-86
2023/06/23 12:05:47;;;;;;;6.55;3.40;;;26.00;98.30;;;;;;4978333;28;20117;-85
2023/06/23 12:08:13;;;;;;;9.23;4.00;;;26.10;98.60;;;;;;4983910;28;20046;-84
2023/06/23 12:10:40;;;;;;;7.03;4.78;;;26.10;98.10;;;;;;4980118;28;20054;-84
2023/06/23 12:13:13;;;;;;;7.43;4.57;;;26.10;98.20;;;;;;4978607;28;20077;-85
2023/06/23 12:15:40;;;;;;;7.32;4.55;;;26.00;99.10;;;;;;4966196;28;20500;-84
2023/06/23 12:18:08;;;;;;;7.80;4.03;;;26.10;98.80;;;;;;4981605;28;20465;-85
2023/06/23 12:20:38;;;;;;;7.10;4.63;;;26.10;98.60;;;;;;4961327;28;20050;-83
2023/06/23 12:23:11;;;;;;;5.85;3.97;;;26.10;99.00;;;;;;4965191;28;20042;-85
2023/06/23 12:25:45;;;;;;;5.60;4.22;;;26.20;98.90;;;;;;4968946;28;20049;-85
2023/06/23 12:28:13;;;;;;;8.43;4.45;;;26.30;98.60;;;;;;4976135;28;20042;-85
2023/06/23 12:30:41;;;;;;;7.60;3.88;;;26.30;98.20;;;;;;4974720;28;20482;-85
2023/06/23 12:33:19;;;;;;;8.43;3.03;;;26.40;98.00;;;;;;4960535;28;20048;-85
2023/06/23 12:36:07;;;;;;;4.80;2.40;;;26.40;95.60;;;;;;4971404;28;20610;-85
2023/06/23 12:38:33;;;;;;;6.15;2.42;;;26.40;94.20;;;;;;4958442;28;20059;-85
2023/06/23 12:41:20;;;;;;;4.40;2.20;;;26.40;93.80;;;;;;4981114;28;20476;-85
2023/06/23 12:43:50;;;;;;;6.25;2.80;;;26.40;93.10;;;;;;4961142;28;20112;-85
2023/06/23 12:46:16;;;;;;;5.75;2.83;;;26.40;94.40;;;;;;4971286;28;20170;-85
2023/06/23 12:48:43;;;;;;;5.65;2.60;;;26.50;94.80;;;;;;4945533;28;20506;-85
2023/06/23 12:51:09;;;;;;;4.85;2.65;;;26.60;93.80;;;;;;4978941;28;20081;-85
2023/06/23 12:53:35;;;;;;;6.97;2.67;;;26.60;93.00;;;;;;4960747;28;20074;-85
2023/06/23 12:56:01;;;;;;;4.30;2.63;;;26.60;94.20;;;;;;4961643;28;20053;-85